Time;durP1;ratioP1;P1;durP2;ratioP2;P2;SDS_P1;SDS_P2;PMS_P1;PMS_P2;Temp;Humidity;BMP_temperature;BMP_pressure;BME280_temperature;BME280_humidity;BME280_pressure;Samples;Min_cycle;Max_cycle;Signal;HPM_P1;HPM_P2
2023/04/23 00:01:34;;;;;;;20.60;13.23;;;10.20;99.90;;;;;;5025560;28;20197;-68
2023/04/23 00:04:00;;;;;;;18.73;13.13;;;10.20;99.90;;;;;;5025200;28;20186;-68
2023/04/23 00:06:27;;;;;;;19.73;13.73;;;10.20;99.90;;;;;;5025585;28;20201;-68
2023/04/23 00:08:54;;;;;;;20.13;13.20;;;10.10;99.90;;;;;;5021660;28;20188;-68
2023/04/23 00:11:20;;;;;;;19.43;13.27;;;10.20;99.90;;;;;;5025902;28;20707;-68
2023/04/23 00:13:48;;;;;;;19.27;12.47;;;10.10;99.90;;;;;;5021259;28;20188;-68
2023/04/23 00:16:14;;;;;;;18.47;12.57;;;10.00;99.90;;;;;;5026039;28;20181;-69
2023/04/23 00:18:40;;;;;;;18.97;13.67;;;10.00;99.90;;;;;;5022659;28;20261;-69
2023/04/23 00:21:07;;;;;;;19.47;13.40;;;10.10;99.90;;;;;;5024833;28;20261;-70
2023/04/23 00:23:33;;;;;;;18.00;12.83;;;10.20;99.90;;;;;;5023412;28;20272;-69
2023/04/23 00:25:58;;;;;;;18.30;12.87;;;10.00;99.90;;;;;;5023598;28;20257;-69
2023/04/23 00:28:24;;;;;;;20.27;13.40;;;10.10;99.90;;;;;;5024717;28;20213;-68
2023/04/23 00:30:50;;;;;;;20.93;14.20;;;10.00;99.90;;;;;;5004586;28;20201;-69
2023/04/23 00:33:15;;;;;;;21.33;14.27;;;10.00;99.90;;;;;;5025193;28;20244;-68
2023/04/23 00:35:41;;;;;;;22.67;14.50;;;10.00;99.90;;;;;;5021787;28;20748;-68
2023/04/23 00:38:06;;;;;;;22.20;14.53;;;10.00;99.90;;;;;;5025897;28;20240;-68
2023/04/23 00:40:32;;;;;;;23.53;14.97;;;9.90;99.90;;;;;;5021210;28;20656;-69
2023/04/23 00:42:59;;;;;;;27.57;16.83;;;10.00;99.90;;;;;;5020607;28;20775;-69
2023/04/23 00:45:24;;;;;;;25.10;15.50;;;9.90;99.90;;;;;;5022403;28;20182;-69
2023/04/23 00:47:50;;;;;;;24.23;15.13;;;9.80;99.90;;;;;;5024323;28;20274;-69
2023/04/23 00:50:16;;;;;;;25.87;16.40;;;9.90;99.90;;;;;;5023976;28;20237;-68
2023/04/23 00:52:42;;;;;;;22.87;15.97;;;9.70;99.90;;;;;;5026884;28;20174;-69
2023/04/23 00:55:08;;;;;;;28.23;17.03;;;9.90;99.90;;;;;;5028452;28;20189;-69
2023/04/23 00:57:37;;;;;;;26.30;17.90;;;10.00;99.90;;;;;;5025617;28;20721;-68
2023/04/23 01:00:04;;;;;;;27.80;17.13;;;10.00;99.90;;;;;;5028137;28;20174;-69
2023/04/23 01:02:31;;;;;;;32.60;17.67;;;9.90;99.90;;;;;;5025255;28;20193;-68
2023/04/23 01:04:58;;;;;;;27.90;17.63;;;9.60;99.90;;;;;;5029220;28;20184;-69
2023/04/23 01:07:25;;;;;;;29.40;17.80;;;9.90;99.90;;;;;;5024353;28;20325;-68
2023/04/23 01:09:51;;;;;;;27.50;17.90;;;9.80;99.90;;;;;;5029071;28;20170;-69
2023/04/23 01:12:17;;;;;;;28.33;17.47;;;9.90;99.90;;;;;;5024365;28;20274;-69
2023/04/23 01:14:43;;;;;;;27.80;17.73;;;9.90;99.90;;;;;;5028698;28;20185;-68
2023/04/23 01:17:11;;;;;;;27.17;17.70;;;9.90;99.90;;;;;;5025581;28;20193;-69
2023/04/23 01:19:37;;;;;;;26.63;17.43;;;10.30;99.90;;;;;;5027566;28;20693;-69
2023/04/23 01:22:07;;;;;;;26.23;17.47;;;9.90;99.90;;;;;;5008766;28;20186;-69
2023/04/23 01:24:33;;;;;;;26.17;16.90;;;10.20;99.90;;;;;;5027098;28;20181;-69
2023/04/23 01:27:00;;;;;;;23.63;16.60;;;9.90;99.90;;;;;;5026771;28;20218;-69
2023/04/23 01:29:26;;;;;;;24.60;16.37;;;;;;;;;;5025995;28;20182;-68
2023/04/23 01:31:53;;;;;;;28.90;16.90;;;9.90;99.90;;;;;;5027667;28;20236;-69
2023/04/23 01:34:19;;;;;;;27.27;17.63;;;9.90;99.90;;;;;;5024923;28;20218;-68
2023/04/23 01:36:46;;;;;;;25.60;17.30;;;9.90;99.90;;;;;;5027679;28;20751;-68
2023/04/23 01:39:12;;;;;;;25.37;17.17;;;9.90;99.90;;;;;;5027411;28;20193;-69
2023/04/23 01:41:38;;;;;;;27.10;18.03;;;9.90;99.90;;;;;;5028302;28;20189;-69
2023/04/23 01:44:04;;;;;;;26.40;17.93;;;9.90;99.90;;;;;;5023533;28;20170;-69
2023/04/23 01:46:30;;;;;;;29.10;18.40;;;9.90;99.90;;;;;;5028241;28;20189;-69
2023/04/23 01:48:56;;;;;;;28.20;18.10;;;10.20;99.90;;;;;;5024459;28;20653;-69
2023/04/23 01:51:24;;;;;;;27.70;18.10;;;9.90;99.90;;;;;;5027181;28;20178;-69
2023/04/23 01:53:49;;;;;;;27.60;18.50;;;9.90;99.90;;;;;;5025401;28;20193;-69
2023/04/23 01:56:18;;;;;;;28.33;18.17;;;10.00;99.90;;;;;;5026170;28;20170;-69
2023/04/23 01:58:44;;;;;;;27.17;18.23;;;9.70;99.90;;;;;;5026227;28;20236;-69
2023/04/23 02:01:09;;;;;;;28.57;18.90;;;9.80;99.90;;;;;;5024940;28;20178;-69
2023/04/23 02:03:35;;;;;;;27.40;18.43;;;9.70;99.90;;;;;;5026259;28;20596;-69
2023/04/23 02:06:01;;;;;;;29.27;18.83;;;9.90;99.90;;;;;;5022731;28;20190;-69
2023/04/23 02:08:27;;;;;;;31.20;19.37;;;9.90;99.90;;;;;;5027627;28;20233;-69
2023/04/23 02:10:52;;;;;;;30.27;19.47;;;9.80;99.90;;;;;;5023446;28;20209;-69
2023/04/23 02:13:18;;;;;;;30.60;19.73;;;9.80;99.90;;;;;;5027716;28;20652;-69
2023/04/23 02:15:44;;;;;;;26.83;18.50;;;9.80;99.90;;;;;;5023630;28;20257;-69
2023/04/23 02:18:09;;;;;;;26.33;18.17;;;10.00;99.90;;;;;;5027350;28;20273;-69
2023/04/23 02:20:39;;;;;;;29.83;18.60;;;9.70;99.90;;;;;;5024597;28;20683;-69
2023/04/23 02:23:05;;;;;;;28.50;18.73;;;9.70;99.90;;;;;;5026371;28;20190;-69
2023/04/23 02:25:31;;;;;;;27.83;18.67;;;9.70;99.90;;;;;;5025378;28;20213;-69
2023/04/23 02:27:58;;;;;;;30.97;19.10;;;9.70;99.90;;;;;;5025053;28;20240;-69
2023/04/23 02:30:24;;;;;;;29.37;19.07;;;9.90;99.90;;;;;;5026444;28;20170;-69
2023/04/23 02:32:50;;;;;;;30.07;18.53;;;;;;;;;;5023786;28;20179;-69
2023/04/23 02:35:16;;;;;;;29.97;18.20;;;9.90;99.90;;;;;;5026885;28;20188;-69
2023/04/23 02:37:42;;;;;;;24.93;17.57;;;9.70;99.90;;;;;;5023316;28;20170;-69
2023/04/23 02:40:08;;;;;;;30.67;18.63;;;9.70;99.90;;;;;;5027288;28;20173;-69
2023/04/23 02:42:34;;;;;;;27.40;17.17;;;9.70;99.90;;;;;;5022632;28;20167;-69
2023/04/23 02:44:59;;;;;;;30.30;17.10;;;10.00;99.90;;;;;;5027186;28;20190;-69
2023/04/23 02:47:25;;;;;;;28.67;17.53;;;9.50;99.90;;;;;;5023911;28;20216;-69
2023/04/23 02:49:50;;;;;;;27.00;17.30;;;9.80;99.90;;;;;;5008218;28;20178;-68
2023/04/23 02:52:16;;;;;;;23.83;16.97;;;9.70;99.90;;;;;;5025623;28;20204;-69
2023/04/23 02:54:42;;;;;;;25.53;17.33;;;9.70;99.90;;;;;;5024492;28;20185;-69
2023/04/23 02:57:07;;;;;;;24.57;16.53;;;9.70;99.90;;;;;;5025982;28;20224;-69
2023/04/23 02:59:33;;;;;;;26.97;17.20;;;9.90;99.90;;;;;;5023368;28;20182;-69
2023/04/23 03:01:59;;;;;;;24.80;17.20;;;9.70;99.90;;;;;;5026585;28;20653;-69
2023/04/23 03:04:24;;;;;;;25.47;16.73;;;9.30;99.90;;;;;;5022371;28;20174;-70
2023/04/23 03:06:50;;;;;;;24.00;16.63;;;9.50;99.90;;;;;;5026704;28;20257;-68
2023/04/23 03:09:16;;;;;;;25.03;16.93;;;9.70;99.90;;;;;;5022339;28;20237;-69
2023/04/23 03:11:41;;;;;;;24.13;16.53;;;9.60;99.90;;;;;;5026478;28;20193;-69
2023/04/23 03:14:07;;;;;;;25.87;16.77;;;9.50;99.90;;;;;;5023200;28;20189;-69
2023/04/23 03:16:33;;;;;;;24.97;16.87;;;9.60;99.90;;;;;;5025327;28;20240;-69
2023/04/23 03:19:00;;;;;;;28.70;18.20;;;9.70;99.90;;;;;;5024956;28;20192;-69
2023/04/23 03:21:26;;;;;;;27.67;17.50;;;9.90;99.90;;;;;;5023779;28;20166;-69
2023/04/23 03:23:51;;;;;;;30.10;17.73;;;9.50;99.90;;;;;;5025635;28;20196;-69
2023/04/23 03:26:17;;;;;;;28.53;17.47;;;9.50;99.90;;;;;;5022576;28;20657;-69
2023/04/23 03:28:43;;;;;;;30.83;18.10;;;9.80;99.90;;;;;;5026385;28;20197;-69
2023/04/23 03:31:08;;;;;;;27.37;17.77;;;9.50;99.90;;;;;;5021933;28;20714;-69
2023/04/23 03:33:34;;;;;;;29.30;19.10;;;;;;;;;;5026443;28;20592;-69
2023/04/23 03:36:00;;;;;;;28.87;18.13;;;9.50;99.90;;;;;;5022035;28;20189;-68
2023/04/23 03:38:26;;;;;;;24.67;17.23;;;9.50;99.90;;;;;;5025951;28;20185;-69
2023/04/23 03:40:51;;;;;;;28.53;18.97;;;9.40;99.90;;;;;;5023528;28;20181;-68
2023/04/23 03:43:17;;;;;;;30.30;19.50;;;9.50;99.90;;;;;;5024420;28;20189;-69
2023/04/23 03:45:43;;;;;;;29.53;18.80;;;9.50;99.90;;;;;;5024771;28;20173;-69
2023/04/23 03:48:09;;;;;;;27.43;18.70;;;10.10;99.90;;;;;;5023176;28;20213;-69
2023/04/23 03:50:39;;;;;;;29.57;18.87;;;9.70;99.90;;;;;;5025311;28;20583;-69
2023/04/23 03:53:05;;;;;;;27.37;19.13;;;9.60;99.90;;;;;;5019169;28;20186;-69
2023/04/23 03:55:30;;;;;;;29.80;19.13;;;9.60;99.90;;;;;;5025456;28;20188;-69
2023/04/23 03:57:58;;;;;;;25.90;18.60;;;9.60;99.90;;;;;;5021953;28;20166;-69
2023/04/23 04:00:24;;;;;;;29.90;19.00;;;;;;;;;;5026053;28;20177;-69
2023/04/23 04:02:50;;;;;;;27.70;18.90;;;9.50;99.90;;;;;;5021488;28;20197;-69
2023/04/23 04:05:15;;;;;;;25.60;18.20;;;9.50;99.90;;;;;;5026118;28;20264;-69
2023/04/23 04:07:41;;;;;;;31.17;19.43;;;9.50;99.90;;;;;;5022222;28;20241;-68
2023/04/23 04:10:07;;;;;;;32.10;19.47;;;9.80;99.90;;;;;;5025035;28;20174;-69
2023/04/23 04:12:32;;;;;;;29.03;19.10;;;9.50;99.90;;;;;;5023858;28;20739;-69
2023/04/23 04:14:58;;;;;;;31.87;19.97;;;9.40;99.90;;;;;;5023455;28;20174;-69
2023/04/23 04:17:24;;;;;;;28.33;19.20;;;9.40;99.90;;;;;;5024917;28;20197;-69
2023/04/23 04:19:50;;;;;;;30.87;20.00;;;9.40;99.90;;;;;;5022334;28;20175;-69
2023/04/23 04:22:16;;;;;;;30.00;18.63;;;9.40;99.90;;;;;;5023930;28;20197;-68
2023/04/23 04:24:42;;;;;;;29.40;18.97;;;9.30;99.90;;;;;;5021720;28;20182;-69
2023/04/23 04:27:08;;;;;;;31.13;19.70;;;9.20;99.90;;;;;;5029470;28;20346;-68
2023/04/23 04:29:34;;;;;;;33.47;20.30;;;9.40;99.90;;;;;;5025215;28;20281;-69
2023/04/23 04:32:00;;;;;;;35.57;20.03;;;9.30;99.90;;;;;;5029794;28;20189;-69
2023/04/23 04:34:26;;;;;;;32.13;19.83;;;9.40;99.90;;;;;;5026442;28;20192;-69
2023/04/23 04:36:52;;;;;;;38.13;22.07;;;9.10;99.90;;;;;;5028493;28;20193;-69
2023/04/23 04:39:18;;;;;;;34.00;20.07;;;9.20;99.90;;;;;;5027067;28;20205;-69
2023/04/23 04:41:45;;;;;;;34.67;20.60;;;9.00;99.90;;;;;;5027243;28;20230;-69
2023/04/23 04:44:13;;;;;;;34.20;21.27;;;9.10;99.90;;;;;;5028510;28;20190;-68
2023/04/23 04:46:39;;;;;;;33.73;20.63;;;9.10;99.90;;;;;;5026090;28;20296;-69
2023/04/23 04:49:07;;;;;;;37.33;21.13;;;9.10;99.90;;;;;;5028733;28;20197;-69
2023/04/23 04:51:33;;;;;;;37.73;22.20;;;;;;;;;;5032205;28;20185;-69
2023/04/23 04:53:59;;;;;;;35.90;21.07;;;9.10;99.90;;;;;;5029255;28;20185;-69
2023/04/23 04:56:25;;;;;;;35.40;20.90;;;9.10;99.90;;;;;;5024356;28;20262;-69
2023/04/23 04:58:51;;;;;;;35.03;21.13;;;9.10;99.90;;;;;;5028905;28;20213;-69
2023/04/23 05:01:17;;;;;;;36.80;21.73;;;9.20;99.90;;;;;;5025558;28;20195;-68
2023/04/23 05:03:43;;;;;;;34.10;21.27;;;8.90;99.90;;;;;;5028266;28;20682;-69
2023/04/23 05:06:09;;;;;;;32.80;21.23;;;9.10;99.90;;;;;;5026393;28;20222;-69
2023/04/23 05:08:35;;;;;;;38.03;22.40;;;9.10;99.90;;;;;;5026757;28;20291;-69
2023/04/23 05:11:02;;;;;;;36.53;21.93;;;9.10;99.90;;;;;;5027766;28;20182;-69
2023/04/23 05:13:28;;;;;;;37.47;22.13;;;9.10;99.90;;;;;;5025995;28;20270;-69
2023/04/23 05:15:54;;;;;;;34.83;21.10;;;9.00;99.90;;;;;;5028077;28;20601;-69
2023/04/23 05:18:20;;;;;;;36.80;21.37;;;9.90;99.90;;;;;;5028139;28;20246;-69
2023/04/23 05:20:45;;;;;;;33.20;21.03;;;8.90;99.90;;;;;;5028752;28;20181;-68
2023/04/23 05:23:11;;;;;;;31.87;20.93;;;9.10;99.90;;;;;;5024303;28;20676;-69
2023/04/23 05:25:37;;;;;;;34.77;21.47;;;9.00;99.90;;;;;;5028947;28;20659;-69
2023/04/23 05:28:03;;;;;;;33.20;20.30;;;;;;;;;;5025029;28;20755;-69
2023/04/23 05:30:29;;;;;;;33.37;20.33;;;9.10;99.90;;;;;;5027871;28;20201;-69
2023/04/23 05:32:55;;;;;;;37.47;20.40;;;;;;;;;;5026344;28;20625;-69
2023/04/23 05:35:20;;;;;;;33.27;20.43;;;9.10;99.90;;;;;;5026296;28;20186;-69
2023/04/23 05:37:46;;;;;;;33.67;20.20;;;9.00;99.90;;;;;;5027374;28;20182;-70
2023/04/23 05:40:12;;;;;;;32.13;20.37;;;9.00;99.90;;;;;;5025009;28;20179;-69
2023/04/23 05:42:37;;;;;;;37.30;20.53;;;9.00;99.90;;;;;;5023523;28;20171;-69
2023/04/23 05:45:03;;;;;;;32.70;20.17;;;9.00;99.90;;;;;;5027937;28;20178;-69
2023/04/23 05:47:29;;;;;;;32.40;19.83;;;8.90;99.90;;;;;;5028340;28;20241;-70
2023/04/23 05:49:58;;;;;;;40.70;21.13;;;9.40;99.90;;;;;;5023578;28;20676;-69
2023/04/23 05:52:24;;;;;;;34.73;21.53;;;8.80;99.90;;;;;;5020851;28;20182;-70
2023/04/23 05:54:50;;;;;;;38.50;21.53;;;8.90;99.90;;;;;;5024576;28;20660;-70
2023/04/23 05:57:16;;;;;;;36.50;21.83;;;8.90;99.90;;;;;;5027521;28;20270;-70
2023/04/23 05:59:42;;;;;;;36.23;21.50;;;8.90;99.90;;;;;;5025661;28;20187;-70
2023/04/23 06:02:09;;;;;;;37.53;21.97;;;9.00;99.90;;;;;;5025778;28;20660;-69
2023/04/23 06:04:35;;;;;;;45.57;21.67;;;9.00;99.90;;;;;;5026416;28;20645;-70
2023/04/23 06:07:01;;;;;;;42.20;22.97;;;9.00;99.90;;;;;;5024736;28;20222;-70
2023/04/23 06:09:27;;;;;;;38.13;21.37;;;9.00;99.90;;;;;;5026982;28;20170;-67
2023/04/23 06:11:53;;;;;;;36.87;21.87;;;9.00;99.90;;;;;;5024057;28;20187;-68
2023/04/23 06:14:19;;;;;;;38.00;22.70;;;9.00;99.90;;;;;;5027817;28;20186;-70
2023/04/23 06:16:45;;;;;;;45.07;21.33;;;9.00;99.90;;;;;;5026354;28;20521;-69
2023/04/23 06:19:10;;;;;;;35.83;22.23;;;9.00;99.90;;;;;;5027660;28;20247;-69
2023/04/23 06:21:36;;;;;;;39.73;21.37;;;8.80;99.90;;;;;;5023434;28;20650;-69
2023/04/23 06:24:02;;;;;;;36.87;21.47;;;9.00;99.90;;;;;;5027306;28;20189;-69
2023/04/23 06:26:28;;;;;;;37.80;21.97;;;9.00;99.90;;;;;;5027429;28;20185;-69
2023/04/23 06:28:53;;;;;;;39.03;22.50;;;9.00;99.90;;;;;;5025945;28;20181;-68
2023/04/23 06:31:19;;;;;;;43.03;22.63;;;8.90;99.90;;;;;;5025566;28;20194;-69
2023/04/23 06:33:44;;;;;;;42.60;22.47;;;9.00;99.90;;;;;;5024579;28;20193;-69
2023/04/23 06:36:10;;;;;;;38.87;21.83;;;9.00;99.90;;;;;;5026515;28;20205;-69
2023/04/23 06:38:36;;;;;;;42.37;23.10;;;9.10;99.90;;;;;;5023863;28;20179;-70
2023/04/23 06:41:03;;;;;;;41.40;22.90;;;9.10;99.90;;;;;;5027453;28;20190;-68
2023/04/23 06:43:29;;;;;;;36.70;21.53;;;;;;;;;;5022584;28;20273;-69
2023/04/23 06:45:55;;;;;;;40.37;23.07;;;9.30;99.90;;;;;;5027120;28;20228;-69
2023/04/23 06:48:21;;;;;;;36.10;20.70;;;9.20;99.90;;;;;;5022178;28;20206;-69
2023/04/23 06:50:47;;;;;;;37.40;22.00;;;9.40;99.90;;;;;;5026675;28;20261;-69
2023/04/23 06:53:13;;;;;;;33.77;20.70;;;9.30;99.90;;;;;;5023965;28;20221;-69
2023/04/23 06:55:39;;;;;;;34.63;20.83;;;9.30;99.90;;;;;;5025505;28;20763;-69
2023/04/23 06:58:06;;;;;;;36.87;20.63;;;9.30;99.90;;;;;;5025296;28;20276;-69
2023/04/23 07:00:32;;;;;;;35.13;19.60;;;9.50;99.90;;;;;;5024233;28;20793;-69
2023/04/23 07:02:57;;;;;;;30.70;19.57;;;9.50;99.90;;;;;;5025901;28;20182;-69
2023/04/23 07:05:23;;;;;;;32.77;20.53;;;9.50;99.90;;;;;;5023222;28;20190;-69
2023/04/23 07:07:49;;;;;;;32.13;19.87;;;9.80;99.90;;;;;;5026327;28;20567;-69
2023/04/23 07:10:14;;;;;;;32.93;21.07;;;9.60;99.90;;;;;;5022335;28;20170;-69
2023/04/23 07:12:40;;;;;;;31.97;19.50;;;9.70;99.90;;;;;;5026699;28;20542;-69
2023/04/23 07:15:07;;;;;;;30.23;19.60;;;9.80;99.90;;;;;;5022391;28;20183;-69
2023/04/23 07:17:33;;;;;;;25.47;18.03;;;9.90;99.90;;;;;;5026461;28;20181;-70
2023/04/23 07:19:59;;;;;;;32.27;19.57;;;10.00;99.90;;;;;;5023200;28;20174;-69
2023/04/23 07:22:25;;;;;;;24.27;17.03;;;10.20;99.90;;;;;;5025356;28;20228;-69
2023/04/23 07:24:51;;;;;;;27.80;17.37;;;10.20;99.90;;;;;;5024388;28;20265;-70
2023/04/23 07:27:17;;;;;;;27.90;17.40;;;10.30;99.90;;;;;;5024285;28;20215;-70
2023/04/23 07:29:43;;;;;;;30.87;17.27;;;10.50;99.90;;;;;;5025218;28;20181;-69
2023/04/23 07:32:08;;;;;;;25.17;16.60;;;10.60;99.90;;;;;;5023078;28;20186;-68
2023/04/23 07:34:37;;;;;;;26.60;16.87;;;10.90;99.90;;;;;;5025617;28;20202;-68
2023/04/23 07:37:03;;;;;;;20.17;13.67;;;10.90;99.90;;;;;;5025533;28;20713;-68
2023/04/23 07:39:28;;;;;;;20.40;12.90;;;11.10;99.90;;;;;;5026325;28;20593;-68
2023/04/23 07:41:55;;;;;;;20.27;12.20;;;11.10;99.90;;;;;;5021463;28;20186;-68
2023/04/23 07:44:21;;;;;;;18.77;12.17;;;;;;;;;;5026257;28;20178;-69
2023/04/23 07:46:47;;;;;;;22.10;12.20;;;11.50;99.90;;;;;;5022004;28;20230;-69
2023/04/23 07:49:12;;;;;;;17.73;11.33;;;11.60;99.90;;;;;;5025616;28;20249;-68
2023/04/23 07:51:38;;;;;;;16.63;11.30;;;11.70;99.90;;;;;;5023362;28;20213;-69
2023/04/23 07:54:04;;;;;;;20.90;12.87;;;11.50;99.90;;;;;;5024087;28;20174;-69
2023/04/23 07:56:31;;;;;;;20.67;12.17;;;;;;;;;;5024947;28;20265;-68
2023/04/23 07:58:57;;;;;;;20.23;12.33;;;;;;;;;;5023020;28;20184;-69
2023/04/23 08:01:23;;;;;;;22.80;13.07;;;11.80;99.90;;;;;;5029272;28;20219;-69
2023/04/23 08:03:49;;;;;;;21.83;12.93;;;11.10;99.90;;;;;;5026840;28;20235;-69
2023/04/23 08:06:15;;;;;;;17.60;12.93;;;11.10;99.90;;;;;;5030109;28;20282;-69
2023/04/23 08:08:41;;;;;;;20.50;13.43;;;11.20;99.90;;;;;;5025110;28;20241;-69
2023/04/23 08:11:07;;;;;;;18.73;12.23;;;11.70;99.90;;;;;;5030029;28;20674;-69
2023/04/23 08:13:32;;;;;;;20.83;13.60;;;11.70;99.90;;;;;;5026308;28;20550;-69
2023/04/23 08:15:58;;;;;;;22.97;14.70;;;12.00;99.90;;;;;;5028964;28;20649;-69
2023/04/23 08:18:24;;;;;;;20.47;14.53;;;12.70;99.90;;;;;;5027401;28;20182;-69
2023/04/23 08:20:49;;;;;;;17.33;13.30;;;12.80;99.90;;;;;;5027933;28;20189;-69
2023/04/23 08:23:15;;;;;;;18.70;12.10;;;12.60;99.90;;;;;;5028537;28;20567;-69
2023/04/23 08:25:41;;;;;;;16.95;12.57;;;12.70;99.90;;;;;;5008952;28;20178;-69
2023/04/23 08:28:06;;;;;;;16.40;11.67;;;13.10;99.90;;;;;;5028707;28;20301;-69
2023/04/23 08:30:32;;;;;;;13.73;10.82;;;13.50;99.90;;;;;;5025876;28;20253;-69
2023/04/23 08:32:57;;;;;;;13.65;10.00;;;14.30;99.90;;;;;;5029761;28;20166;-69
2023/04/23 08:35:23;;;;;;;14.25;9.80;;;15.30;99.90;;;;;;5025222;28;20182;-70
2023/04/23 08:37:49;;;;;;;14.07;9.38;;;15.50;99.90;;;;;;5029801;28;20192;-70
2023/04/23 08:40:15;;;;;;;12.43;9.77;;;16.40;99.90;;;;;;5026516;28;20265;-70
2023/04/23 08:42:56;;;;;;;10.95;8.70;;;16.90;99.90;;;;;;5028302;28;20196;-71
2023/04/23 08:45:23;;;;;;;10.32;8.27;;;17.70;99.90;;;;;;5025248;28;20273;-70
2023/04/23 08:47:49;;;;;;;10.27;8.70;;;18.10;99.90;;;;;;5029249;28;20264;-70
2023/04/23 08:50:18;;;;;;;15.55;8.50;;;18.80;99.90;;;;;;5025976;28;20645;-70
2023/04/23 08:53:05;;;;;;;9.98;7.20;;;18.60;99.90;;;;;;5028403;28;20675;-70
2023/04/23 08:55:33;;;;;;;8.35;6.95;;;18.30;99.90;;;;;;5027728;28;20676;-70
2023/04/23 08:58:00;;;;;;;9.57;7.13;;;17.10;99.90;;;;;;5029205;28;20265;-70
2023/04/23 09:00:25;;;;;;;9.23;7.25;;;15.50;99.90;;;;;;5024560;28;20190;-70
2023/04/23 09:02:51;;;;;;;10.02;7.38;;;15.30;99.90;;;;;;5029043;28;20796;-70
2023/04/23 09:05:17;;;;;;;8.05;6.30;;;14.50;99.90;;;;;;5025891;28;20178;-70
2023/04/23 09:07:43;;;;;;;9.55;6.35;;;14.20;99.90;;;;;;5027343;28;20884;-70
2023/04/23 09:10:11;;;;;;;8.77;5.95;;;14.40;99.90;;;;;;5027198;28;20281;-70
2023/04/23 09:12:39;;;;;;;7.50;5.45;;;14.70;99.90;;;;;;5025570;28;20178;-70
2023/04/23 09:15:10;;;;;;;5.95;4.40;;;14.80;99.90;;;;;;5028054;28;20179;-70
2023/04/23 09:17:39;;;;;;;7.65;4.68;;;14.90;99.90;;;;;;5025794;28;20201;-70
2023/04/23 09:20:08;;;;;;;9.45;5.35;;;14.70;99.90;;;;;;5027879;28;20252;-71
2023/04/23 09:22:42;;;;;;;7.75;5.03;;;15.10;99.90;;;;;;5024978;28;20190;-70
2023/04/23 09:25:10;;;;;;;6.32;4.38;;;15.90;99.90;;;;;;5027685;28;20174;-70
2023/04/23 09:27:35;;;;;;;6.40;4.03;;;16.50;99.90;;;;;;5025003;28;20242;-70
2023/04/23 09:30:06;;;;;;;6.80;3.95;;;16.20;99.90;;;;;;5028350;28;20710;-69
2023/04/23 09:32:33;;;;;;;6.68;5.22;;;15.70;99.90;;;;;;5027869;28;20190;-70
2023/04/23 09:35:05;;;;;;;6.13;4.50;;;15.70;99.90;;;;;;5028621;28;20178;-70
2023/04/23 09:37:31;;;;;;;9.27;5.75;;;15.90;99.90;;;;;;5024439;28;20641;-70
2023/04/23 09:40:03;;;;;;;25.60;15.23;;;16.10;99.90;;;;;;5028490;28;20213;-70
2023/04/23 09:42:29;;;;;;;23.75;17.05;;;16.70;99.90;;;;;;5027132;28;20182;-70
2023/04/23 09:45:06;;;;;;;7.90;4.90;;;17.10;99.90;;;;;;5028333;28;20182;-70
2023/04/23 09:47:37;;;;;;;30.75;17.20;;;16.80;99.90;;;;;;5027136;28;20209;-70
2023/04/23 09:50:04;;;;;;;271.85;117.78;;;15.60;99.90;;;;;;5028341;28;20265;-70
2023/04/23 09:52:37;;;;;;;30.88;19.45;;;15.30;99.90;;;;;;5026660;28;20178;-69
2023/04/23 09:55:04;;;;;;;10.18;6.05;;;15.20;99.90;;;;;;5028126;28;20190;-70
2023/04/23 09:57:34;;;;;;;8.25;5.15;;;16.00;99.90;;;;;;5023536;28;20170;-70
2023/04/23 10:00:18;;;;;;;7.32;5.90;;;17.60;99.90;;;;;;5028000;28;20182;-70
2023/04/23 10:02:48;;;;;;;6.53;4.85;;;18.30;99.90;;;;;;5027497;28;20200;-70
2023/04/23 10:05:19;;;;;;;3.70;3.28;;;17.90;99.90;;;;;;5026945;28;20196;-70
2023/04/23 10:07:47;;;;;;;3.20;2.90;;;17.60;99.90;;;;;;5023961;28;20230;-70
2023/04/23 10:10:13;;;;;;;4.80;3.10;;;16.70;99.90;;;;;;5026992;28;20224;-70
2023/04/23 10:12:40;;;;;;;3.38;3.08;;;15.10;99.90;;;;;;5026346;28;20210;-70
2023/04/23 10:15:06;;;;;;;4.95;3.17;;;15.20;99.90;;;;;;5027692;28;20178;-70
2023/04/23 10:17:34;;;;;;;4.20;3.15;;;15.20;99.90;;;;;;5023219;28;20213;-70
2023/04/23 10:20:00;;;;;;;3.33;2.63;;;16.20;99.90;;;;;;5030781;28;20186;-70
2023/04/23 10:22:29;;;;;;;2.33;2.00;;;17.50;99.90;;;;;;5022954;28;20252;-70
2023/04/23 10:24:57;;;;;;;2.67;2.42;;;18.90;99.90;;;;;;5022003;28;20181;-70
2023/04/23 10:27:28;;;;;;;3.10;2.20;;;18.90;99.90;;;;;;5023702;28;20421;-71
2023/04/23 10:29:55;;;;;;;3.13;2.55;;;18.90;99.90;;;;;;5027327;28;20770;-69
2023/04/23 10:32:22;;;;;;;2.35;2.00;;;19.00;99.90;;;;;;5023718;28;20214;-69
2023/04/23 10:34:49;;;;;;;3.03;2.58;;;19.10;99.90;;;;;;5026590;28;20184;-69
2023/04/23 10:37:18;;;;;;;3.03;2.25;;;18.80;99.90;;;;;;5024649;28;20186;-69
2023/04/23 10:39:48;;;;;;;3.60;2.00;;;18.70;99.90;;;;;;5025810;28;20174;-70
2023/04/23 10:42:15;;;;;;;4.80;4.10;;;18.60;99.90;;;;;;5024922;28;20186;-71
2023/04/23 10:44:42;;;;;;;6.47;5.13;;;19.20;99.90;;;;;;5025595;28;20186;-71
2023/04/23 10:47:13;;;;;;;4.07;3.30;;;19.50;99.90;;;;;;5025655;28;20344;-71
2023/04/23 10:49:40;;;;;;;3.38;2.90;;;;;;;;;;5024697;28;20178;-70
2023/04/23 10:52:14;;;;;;;3.97;2.95;;;19.60;99.90;;;;;;5007458;28;20174;-71
2023/04/23 10:54:55;;;;;;;1.60;1.40;;;20.30;99.90;;;;;;5024879;28;20668;-71
2023/04/23 10:57:21;;;;;;;2.42;2.22;;;20.40;99.90;;;;;;5022342;28;20197;-71
2023/04/23 10:59:55;;;;;;;2.60;2.30;;;20.50;99.90;;;;;;5025537;28;20534;-71
2023/04/23 11:02:24;;;;;;;4.00;2.00;;;20.60;99.90;;;;;;5024084;28;20180;-71
2023/04/23 11:04:56;;;;;;;3.70;1.75;;;20.90;99.90;;;;;;5025550;28;20232;-72
2023/04/23 11:07:28;;;;;;;2.63;2.05;;;19.90;99.90;;;;;;5023865;28;20311;-71
2023/04/23 11:09:58;;;;;;;2.70;2.13;;;19.70;99.90;;;;;;5025869;28;20185;-71
2023/04/23 11:12:27;;;;;;;4.80;2.58;;;21.00;99.90;;;;;;5024065;28;20485;-71
2023/04/23 11:14:53;;;;;;;4.68;2.28;;;21.10;99.90;;;;;;5025283;28;20180;-71
2023/04/23 11:17:31;;;;;;;2.60;2.33;;;21.10;99.90;;;;;;5024580;28;20181;-71
2023/04/23 11:20:09;;;;;;;2.88;2.35;;;20.90;99.90;;;;;;5025567;28;20299;-71
2023/04/23 11:22:41;;;;;;;2.35;2.15;;;19.60;99.90;;;;;;5022583;28;20182;-71
2023/04/23 11:25:27;;;;;;;2.15;1.90;;;19.60;99.90;;;;;;5021861;28;20636;-71
2023/04/23 11:27:54;;;;;;;7.95;3.20;;;19.90;99.90;;;;;;5022734;28;20221;-70
2023/04/23 11:30:24;;;;;;;4.15;3.10;;;20.50;99.90;;;;;;5026444;28;20584;-71
2023/04/23 11:32:53;;;;;;;5.10;3.40;;;21.10;99.90;;;;;;5022767;28;20182;-71
2023/04/23 11:35:22;;;;;;;4.75;4.07;;;20.70;99.90;;;;;;5029149;28;20182;-71
2023/04/23 11:37:48;;;;;;;4.65;4.00;;;21.00;99.90;;;;;;5022004;28;20182;-71
2023/04/23 11:40:19;;;;;;;6.80;4.60;;;21.50;99.90;;;;;;5026277;28;20839;-73
2023/04/23 11:42:50;;;;;;;5.32;4.18;;;20.90;99.90;;;;;;5021777;28;20281;-71
2023/04/23 11:45:18;;;;;;;5.20;3.50;;;20.80;99.90;;;;;;5026119;28;20182;-71
2023/04/23 11:47:49;;;;;;;5.63;4.20;;;20.80;99.90;;;;;;5021572;28;20210;-71
2023/04/23 11:50:19;;;;;;;5.10;4.00;;;20.50;99.90;;;;;;5021712;28;20244;-71
2023/04/23 11:52:45;;;;;;;4.22;3.83;;;20.20;99.90;;;;;;5023000;28;20183;-71
2023/04/23 11:55:11;;;;;;;5.25;3.50;;;19.70;99.90;;;;;;5025994;28;20711;-71
2023/04/23 11:57:42;;;;;;;4.90;3.60;;;19.40;99.90;;;;;;5022765;28;20236;-71
2023/04/23 12:00:19;;;;;;;3.30;3.00;;;19.80;99.90;;;;;;5025511;28;20264;-71
2023/04/23 12:02:58;;;;;;;4.00;3.60;;;20.40;99.90;;;;;;5022194;28;20392;-71
2023/04/23 12:05:30;;;;;;;6.95;5.00;;;21.50;99.90;;;;;;5022482;28;20648;-71
2023/04/23 12:08:16;;;;;;;4.15;3.05;;;21.30;99.90;;;;;;5021426;28;20233;-71
2023/04/23 12:10:53;;;;;;;3.75;2.50;;;19.60;99.90;;;;;;5025230;28;20177;-71
2023/04/23 12:13:22;;;;;;;4.43;3.58;;;18.90;99.90;;;;;;5023671;28;20284;-71
2023/04/23 12:15:51;;;;;;;5.28;3.38;;;19.40;99.90;;;;;;5024304;28;20208;-71
2023/04/23 12:18:17;;;;;;;4.90;3.88;;;18.20;99.90;;;;;;5023542;28;20257;-71
2023/04/23 12:20:43;;;;;;;6.65;3.88;;;17.60;99.90;;;;;;5024935;28;20265;-71
2023/04/23 12:23:09;;;;;;;4.95;4.03;;;17.10;99.90;;;;;;5022098;28;20181;-68
2023/04/23 12:25:35;;;;;;;8.07;4.65;;;16.40;99.90;;;;;;5025233;28;20174;-69
2023/04/23 12:28:06;;;;;;;7.43;5.68;;;16.00;99.90;;;;;;5021602;28;20580;-69
2023/04/23 12:30:33;;;;;;;7.65;5.22;;;16.70;99.90;;;;;;5026106;28;20194;-70
2023/04/23 12:33:03;;;;;;;7.28;5.00;;;16.40;99.90;;;;;;5024335;28;20233;-70
2023/04/23 12:35:43;;;;;;;8.07;4.70;;;15.60;99.90;;;;;;5025667;28;20181;-69
2023/04/23 12:38:21;;;;;;;7.18;3.38;;;14.80;99.90;;;;;;5008328;28;20189;-69
2023/04/23 12:40:47;;;;;;;4.22;3.15;;;14.60;99.90;;;;;;5025121;28;20200;-69